sensor_id;sensor_type;location;lat;lon;timestamp;temperature;humidity
9998;DHT22;5038;53.064;8.624;2022-08-27T00:01:47;20.60;99.90
9998;DHT22;5038;53.064;8.624;2022-08-27T00:04:17;20.60;99.90
9998;DHT22;5038;53.064;8.624;2022-08-27T00:06:45;20.60;99.90
9998;DHT22;5038;53.064;8.624;2022-08-27T00:09:13;20.60;99.90
9998;DHT22;5038;53.064;8.624;2022-08-27T00:11:49;20.60;99.90
9998;DHT22;5038;53.064;8.624;2022-08-27T00:14:17;20.60;99.90
9998;DHT22;5038;53.064;8.624;2022-08-27T00:16:46;20.60;99.90
9998;DHT22;5038;53.064;8.624;2022-08-27T00:19:14;20.60;99.90
9998;DHT22;5038;53.064;8.624;2022-08-27T00:21:44;20.60;99.90
9998;DHT22;5038;53.064;8.624;2022-08-27T00:24:12;20.50;99.90
9998;DHT22;5038;53.064;8.624;2022-08-27T00:26:40;20.50;99.90
9998;DHT22;5038;53.064;8.624;2022-08-27T00:29:09;20.50;99.90
9998;DHT22;5038;53.064;8.624;2022-08-27T00:31:37;20.50;99.90
9998;DHT22;5038;53.064;8.624;2022-08-27T00:34:06;20.50;99.90
9998;DHT22;5038;53.064;8.624;2022-08-27T00:36:38;20.50;99.90
9998;DHT22;5038;53.064;8.624;2022-08-27T00:39:08;20.40;99.90
9998;DHT22;5038;53.064;8.624;2022-08-27T00:41:37;20.40;99.90
9998;DHT22;5038;53.064;8.624;2022-08-27T00:44:06;20.40;99.90
9998;DHT22;5038;53.064;8.624;2022-08-27T00:46:38;20.40;99.90
9998;DHT22;5038;53.064;8.624;2022-08-27T00:49:10;20.40;99.90
9998;DHT22;5038;53.064;8.624;2022-08-27T00:51:40;20.50;99.90
9998;DHT22;5038;53.064;8.624;2022-08-27T00:54:10;20.40;99.90
9998;DHT22;5038;53.064;8.624;2022-08-27T00:56:44;20.40;99.90
9998;DHT22;5038;53.064;8.624;2022-08-27T00:59:20;20.40;99.90
9998;DHT22;5038;53.064;8.624;2022-08-27T01:01:49;20.40;99.90
9998;DHT22;5038;53.064;8.624;2022-08-27T01:04:37;20.40;99.90
9998;DHT22;5038;53.064;8.624;2022-08-27T01:07:07;20.40;99.90
9998;DHT22;5038;53.064;8.624;2022-08-27T01:09:37;20.30;99.90
9998;DHT22;5038;53.064;8.624;2022-08-27T01:12:07;20.30;99.90
9998;DHT22;5038;53.064;8.624;2022-08-27T01:14:35;20.30;99.90
9998;DHT22;5038;53.064;8.624;2022-08-27T01:17:06;20.30;99.90
9998;DHT22;5038;53.064;8.624;2022-08-27T01:19:38;20.30;99.90
9998;DHT22;5038;53.064;8.624;2022-08-27T01:22:12;20.20;99.90
9998;DHT22;5038;53.064;8.624;2022-08-27T01:24:51;20.20;99.90
9998;DHT22;5038;53.064;8.624;2022-08-27T01:27:21;20.20;99.90
9998;DHT22;5038;53.064;8.624;2022-08-27T01:29:51;20.20;99.90
9998;DHT22;5038;53.064;8.624;2022-08-27T01:32:22;20.20;99.90
9998;DHT22;5038;53.064;8.624;2022-08-27T01:34:50;20.20;99.90
9998;DHT22;5038;53.064;8.624;2022-08-27T01:37:20;20.20;99.90
9998;DHT22;5038;53.064;8.624;2022-08-27T01:39:52;20.20;99.90
9998;DHT22;5038;53.064;8.624;2022-08-27T01:42:28;20.20;99.90
9998;DHT22;5038;53.064;8.624;2022-08-27T01:44:58;20.20;99.90
9998;DHT22;5038;53.064;8.624;2022-08-27T01:47:31;20.20;99.90
9998;DHT22;5038;53.064;8.624;2022-08-27T01:50:00;20.20;99.90
9998;DHT22;5038;53.064;8.624;2022-08-27T01:52:29;20.20;99.90
9998;DHT22;5038;53.064;8.624;2022-08-27T01:54:59;20.20;99.90
9998;DHT22;5038;53.064;8.624;2022-08-27T01:57:27;20.10;99.90
9998;DHT22;5038;53.064;8.624;2022-08-27T01:59:57;20.10;99.90
9998;DHT22;5038;53.064;8.624;2022-08-27T02:02:25;20.10;99.90
9998;DHT22;5038;53.064;8.624;2022-08-27T02:04:53;20.10;99.90
9998;DHT22;5038;53.064;8.624;2022-08-27T02:07:21;20.10;99.90
9998;DHT22;5038;53.064;8.624;2022-08-27T02:09:50;20.10;99.90
9998;DHT22;5038;53.064;8.624;2022-08-27T02:12:19;20.10;99.90
9998;DHT22;5038;53.064;8.624;2022-08-27T02:14:47;20.10;99.90
9998;DHT22;5038;53.064;8.624;2022-08-27T02:17:15;20.10;99.90
9998;DHT22;5038;53.064;8.624;2022-08-27T02:19:43;20.00;99.90
9998;DHT22;5038;53.064;8.624;2022-08-27T02:22:12;20.00;99.90
9998;DHT22;5038;53.064;8.624;2022-08-27T02:24:40;20.00;99.90
9998;DHT22;5038;53.064;8.624;2022-08-27T02:27:09;19.90;99.90
9998;DHT22;5038;53.064;8.624;2022-08-27T02:29:38;19.90;99.90
9998;DHT22;5038;53.064;8.624;2022-08-27T02:32:07;19.90;99.90
9998;DHT22;5038;53.064;8.624;2022-08-27T02:34:55;19.90;99.90
9998;DHT22;5038;53.064;8.624;2022-08-27T02:37:23;19.90;99.90
9998;DHT22;5038;53.064;8.624;2022-08-27T02:39:51;19.90;99.90
9998;DHT22;5038;53.064;8.624;2022-08-27T02:42:20;19.80;99.90
9998;DHT22;5038;53.064;8.624;2022-08-27T02:44:49;19.80;99.90
9998;DHT22;5038;53.064;8.624;2022-08-27T02:47:17;19.80;99.90
9998;DHT22;5038;53.064;8.624;2022-08-27T02:49:45;19.80;99.90
9998;DHT22;5038;53.064;8.624;2022-08-27T02:52:14;19.80;99.90
9998;DHT22;5038;53.064;8.624;2022-08-27T02:54:51;19.80;99.90
9998;DHT22;5038;53.064;8.624;2022-08-27T02:57:19;19.80;99.90
9998;DHT22;5038;53.064;8.624;2022-08-27T02:59:49;19.80;99.90
9998;DHT22;5038;53.064;8.624;2022-08-27T03:02:19;19.80;99.90
9998;DHT22;5038;53.064;8.624;2022-08-27T03:04:48;19.80;99.90
9998;DHT22;5038;53.064;8.624;2022-08-27T03:07:17;19.80;99.90
9998;DHT22;5038;53.064;8.624;2022-08-27T03:09:45;19.80;99.90
9998;DHT22;5038;53.064;8.624;2022-08-27T03:12:13;19.80;99.90
9998;DHT22;5038;53.064;8.624;2022-08-27T03:14:42;19.70;99.90
9998;DHT22;5038;53.064;8.624;2022-08-27T03:17:11;19.70;99.90
9998;DHT22;5038;53.064;8.624;2022-08-27T03:19:57;19.70;99.90
9998;DHT22;5038;53.064;8.624;2022-08-27T03:22:27;19.70;99.90
9998;DHT22;5038;53.064;8.624;2022-08-27T03:24:55;19.70;99.90
9998;DHT22;5038;53.064;8.624;2022-08-27T03:27:24;19.70;99.90
9998;DHT22;5038;53.064;8.624;2022-08-27T03:29:52;19.70;99.90
9998;DHT22;5038;53.064;8.624;2022-08-27T03:32:22;19.70;99.90
9998;DHT22;5038;53.064;8.624;2022-08-27T03:34:51;19.70;99.90
9998;DHT22;5038;53.064;8.624;2022-08-27T03:37:19;19.70;99.90
9998;DHT22;5038;53.064;8.624;2022-08-27T03:39:47;19.70;99.90
9998;DHT22;5038;53.064;8.624;2022-08-27T03:42:15;19.70;99.90
9998;DHT22;5038;53.064;8.624;2022-08-27T03:44:43;19.60;99.90
9998;DHT22;5038;53.064;8.624;2022-08-27T03:47:12;19.60;99.90
9998;DHT22;5038;53.064;8.624;2022-08-27T03:49:42;19.70;99.90
9998;DHT22;5038;53.064;8.624;2022-08-27T03:52:10;19.60;99.90
9998;DHT22;5038;53.064;8.624;2022-08-27T03:54:40;19.60;99.90
9998;DHT22;5038;53.064;8.624;2022-08-27T03:57:08;19.60;99.90
9998;DHT22;5038;53.064;8.624;2022-08-27T03:59:36;19.60;99.90
9998;DHT22;5038;53.064;8.624;2022-08-27T04:02:05;19.60;99.90
9998;DHT22;5038;53.064;8.624;2022-08-27T04:04:33;19.60;99.90
9998;DHT22;5038;53.064;8.624;2022-08-27T04:07:03;19.60;99.90
9998;DHT22;5038;53.064;8.624;2022-08-27T04:09:31;19.60;99.90
9998;DHT22;5038;53.064;8.624;2022-08-27T04:11:59;19.60;99.90
9998;DHT22;5038;53.064;8.624;2022-08-27T04:14:27;19.60;99.90
9998;DHT22;5038;53.064;8.624;2022-08-27T04:16:55;19.60;99.90
9998;DHT22;5038;53.064;8.624;2022-08-27T04:19:24;19.60;99.90
9998;DHT22;5038;53.064;8.624;2022-08-27T04:21:58;19.60;99.90
9998;DHT22;5038;53.064;8.624;2022-08-27T04:24:30;19.60;99.90
9998;DHT22;5038;53.064;8.624;2022-08-27T04:26:59;19.60;99.90
9998;DHT22;5038;53.064;8.624;2022-08-27T04:29:27;19.60;99.90
9998;DHT22;5038;53.064;8.624;2022-08-27T04:31:56;19.60;99.90
9998;DHT22;5038;53.064;8.624;2022-08-27T04:34:24;19.60;99.90
9998;DHT22;5038;53.064;8.624;2022-08-27T04:36:54;19.60;99.90
9998;DHT22;5038;53.064;8.624;2022-08-27T04:39:23;19.60;99.90
9998;DHT22;5038;53.064;8.624;2022-08-27T04:41:55;19.60;99.90
9998;DHT22;5038;53.064;8.624;2022-08-27T04:44:25;19.60;99.90
9998;DHT22;5038;53.064;8.624;2022-08-27T04:46:55;19.60;99.90
9998;DHT22;5038;53.064;8.624;2022-08-27T04:49:24;19.60;99.90
9998;DHT22;5038;53.064;8.624;2022-08-27T04:51:53;19.70;99.90
9998;DHT22;5038;53.064;8.624;2022-08-27T04:54:22;19.70;99.90
9998;DHT22;5038;53.064;8.624;2022-08-27T04:57:01;19.70;99.90
9998;DHT22;5038;53.064;8.624;2022-08-27T04:59:30;19.70;99.90
9998;DHT22;5038;53.064;8.624;2022-08-27T05:01:58;19.70;99.90
9998;DHT22;5038;53.064;8.624;2022-08-27T05:04:30;19.70;99.90
9998;DHT22;5038;53.064;8.624;2022-08-27T05:06:59;19.70;99.90
9998;DHT22;5038;53.064;8.624;2022-08-27T05:09:27;19.70;99.90
9998;DHT22;5038;53.064;8.624;2022-08-27T05:11:56;19.70;99.90
9998;DHT22;5038;53.064;8.624;2022-08-27T05:14:25;19.60;99.90
9998;DHT22;5038;53.064;8.624;2022-08-27T05:16:56;19.60;99.90
9998;DHT22;5038;53.064;8.624;2022-08-27T05:19:25;19.60;99.90
9998;DHT22;5038;53.064;8.624;2022-08-27T05:21:53;19.60;99.90
9998;DHT22;5038;53.064;8.624;2022-08-27T05:24:22;19.60;99.90
9998;DHT22;5038;53.064;8.624;2022-08-27T05:26:50;19.60;99.90
9998;DHT22;5038;53.064;8.624;2022-08-27T05:29:18;19.60;99.90
9998;DHT22;5038;53.064;8.624;2022-08-27T05:31:49;19.60;99.90
9998;DHT22;5038;53.064;8.624;2022-08-27T05:34:17;19.60;99.90
9998;DHT22;5038;53.064;8.624;2022-08-27T05:36:53;19.60;99.90
9998;DHT22;5038;53.064;8.624;2022-08-27T05:39:21;19.60;99.90
9998;DHT22;5038;53.064;8.624;2022-08-27T05:41:49;19.60;99.90
9998;DHT22;5038;53.064;8.624;2022-08-27T05:44:19;19.60;99.90
9998;DHT22;5038;53.064;8.624;2022-08-27T05:47:08;19.60;99.90
9998;DHT22;5038;53.064;8.624;2022-08-27T05:49:36;19.60;99.90
9998;DHT22;5038;53.064;8.624;2022-08-27T05:52:07;19.60;99.90
9998;DHT22;5038;53.064;8.624;2022-08-27T05:54:36;19.60;99.90
9998;DHT22;5038;53.064;8.624;2022-08-27T05:57:05;19.60;99.90
9998;DHT22;5038;53.064;8.624;2022-08-27T05:59:34;19.60;99.90
9998;DHT22;5038;53.064;8.624;2022-08-27T06:02:21;19.60;99.90
9998;DHT22;5038;53.064;8.624;2022-08-27T06:04:50;19.60;99.90
9998;DHT22;5038;53.064;8.624;2022-08-27T06:07:19;19.60;99.90
9998;DHT22;5038;53.064;8.624;2022-08-27T06:09:47;19.60;99.90
9998;DHT22;5038;53.064;8.624;2022-08-27T06:12:15;19.60;99.90
9998;DHT22;5038;53.064;8.624;2022-08-27T06:14:43;19.60;99.90
9998;DHT22;5038;53.064;8.624;2022-08-27T06:17:12;19.60;99.90
9998;DHT22;5038;53.064;8.624;2022-08-27T06:19:41;19.60;99.90
9998;DHT22;5038;53.064;8.624;2022-08-27T06:22:11;19.60;99.90
9998;DHT22;5038;53.064;8.624;2022-08-27T06:24:41;19.60;99.90
9998;DHT22;5038;53.064;8.624;2022-08-27T06:27:11;19.70;99.90
9998;DHT22;5038;53.064;8.624;2022-08-27T06:29:40;19.70;99.90
9998;DHT22;5038;53.064;8.624;2022-08-27T06:32:09;19.70;99.90
9998;DHT22;5038;53.064;8.624;2022-08-27T06:34:38;19.70;99.90
9998;DHT22;5038;53.064;8.624;2022-08-27T06:37:08;19.70;99.90
9998;DHT22;5038;53.064;8.624;2022-08-27T06:39:36;19.70;99.90
9998;DHT22;5038;53.064;8.624;2022-08-27T06:42:05;19.80;99.90
9998;DHT22;5038;53.064;8.624;2022-08-27T06:44:38;19.80;99.90
9998;DHT22;5038;53.064;8.624;2022-08-27T06:47:06;19.80;99.90
9998;DHT22;5038;53.064;8.624;2022-08-27T06:49:37;19.90;99.90
9998;DHT22;5038;53.064;8.624;2022-08-27T06:52:07;19.90;99.90
9998;DHT22;5038;53.064;8.624;2022-08-27T06:54:35;19.90;99.90
9998;DHT22;5038;53.064;8.624;2022-08-27T06:57:05;19.90;99.90
9998;DHT22;5038;53.064;8.624;2022-08-27T06:59:33;19.90;99.90
9998;DHT22;5038;53.064;8.624;2022-08-27T07:02:04;20.00;99.90
9998;DHT22;5038;53.064;8.624;2022-08-27T07:04:32;20.00;99.90
9998;DHT22;5038;53.064;8.624;2022-08-27T07:07:01;20.10;99.90
9998;DHT22;5038;53.064;8.624;2022-08-27T07:09:33;20.10;99.90
9998;DHT22;5038;53.064;8.624;2022-08-27T07:12:01;20.10;99.90
9998;DHT22;5038;53.064;8.624;2022-08-27T07:14:29;20.20;99.90
9998;DHT22;5038;53.064;8.624;2022-08-27T07:17:04;20.20;99.90
9998;DHT22;5038;53.064;8.624;2022-08-27T07:19:37;20.20;99.90
9998;DHT22;5038;53.064;8.624;2022-08-27T07:22:07;20.20;99.90
9998;DHT22;5038;53.064;8.624;2022-08-27T07:24:36;20.30;99.90
9998;DHT22;5038;53.064;8.624;2022-08-27T07:27:05;20.30;99.90
9998;DHT22;5038;53.064;8.624;2022-08-27T07:29:33;20.30;99.90
9998;DHT22;5038;53.064;8.624;2022-08-27T07:32:02;20.30;99.90
9998;DHT22;5038;53.064;8.624;2022-08-27T07:34:30;20.30;99.90
9998;DHT22;5038;53.064;8.624;2022-08-27T07:36:58;20.30;99.90
9998;DHT22;5038;53.064;8.624;2022-08-27T07:39:27;20.30;99.90
9998;DHT22;5038;53.064;8.624;2022-08-27T07:41:56;20.30;99.90
9998;DHT22;5038;53.064;8.624;2022-08-27T07:44:42;20.30;99.90
9998;DHT22;5038;53.064;8.624;2022-08-27T07:47:10;20.30;99.90
9998;DHT22;5038;53.064;8.624;2022-08-27T07:49:39;20.40;99.90
9998;DHT22;5038;53.064;8.624;2022-08-27T07:52:07;20.40;99.90
9998;DHT22;5038;53.064;8.624;2022-08-27T07:54:35;20.40;99.90
9998;DHT22;5038;53.064;8.624;2022-08-27T07:57:05;20.40;99.90
9998;DHT22;5038;53.064;8.624;2022-08-27T07:59:33;20.40;99.90
9998;DHT22;5038;53.064;8.624;2022-08-27T08:02:02;20.40;99.90
9998;DHT22;5038;53.064;8.624;2022-08-27T08:04:30;20.40;99.90
9998;DHT22;5038;53.064;8.624;2022-08-27T08:06:58;20.40;99.90
9998;DHT22;5038;53.064;8.624;2022-08-27T08:09:27;20.40;99.90
9998;DHT22;5038;53.064;8.624;2022-08-27T08:11:56;20.40;99.90
9998;DHT22;5038;53.064;8.624;2022-08-27T08:14:26;20.40;99.90
9998;DHT22;5038;53.064;8.624;2022-08-27T08:16:58;20.50;99.90
9998;DHT22;5038;53.064;8.624;2022-08-27T08:19:27;20.50;99.90
9998;DHT22;5038;53.064;8.624;2022-08-27T08:21:58;20.50;99.90
9998;DHT22;5038;53.064;8.624;2022-08-27T08:24:32;20.50;99.90
9998;DHT22;5038;53.064;8.624;2022-08-27T08:27:00;20.50;99.90
9998;DHT22;5038;53.064;8.624;2022-08-27T08:29:35;20.50;99.90
9998;DHT22;5038;53.064;8.624;2022-08-27T08:32:04;20.60;99.90
9998;DHT22;5038;53.064;8.624;2022-08-27T08:34:33;20.60;99.90
9998;DHT22;5038;53.064;8.624;2022-08-27T08:37:03;20.60;99.90
9998;DHT22;5038;53.064;8.624;2022-08-27T08:39:33;20.60;99.90
9998;DHT22;5038;53.064;8.624;2022-08-27T08:42:03;20.70;99.90
9998;DHT22;5038;53.064;8.624;2022-08-27T08:44:35;20.70;99.90
9998;DHT22;5038;53.064;8.624;2022-08-27T08:47:08;20.70;99.90
9998;DHT22;5038;53.064;8.624;2022-08-27T08:49:45;20.70;99.90
9998;DHT22;5038;53.064;8.624;2022-08-27T08:52:24;20.70;99.90
9998;DHT22;5038;53.064;8.624;2022-08-27T08:55:05;20.70;99.90
9998;DHT22;5038;53.064;8.624;2022-08-27T08:57:38;20.70;99.90
9998;DHT22;5038;53.064;8.624;2022-08-27T09:00:11;20.70;99.90
9998;DHT22;5038;53.064;8.624;2022-08-27T09:02:47;20.70;99.90
9998;DHT22;5038;53.064;8.624;2022-08-27T09:05:16;20.70;99.90
9998;DHT22;5038;53.064;8.624;2022-08-27T09:07:50;20.70;99.90
9998;DHT22;5038;53.064;8.624;2022-08-27T09:10:44;20.80;99.90
9998;DHT22;5038;53.064;8.624;2022-08-27T09:13:20;20.80;99.90
9998;DHT22;5038;53.064;8.624;2022-08-27T09:15:57;20.80;99.90
9998;DHT22;5038;53.064;8.624;2022-08-27T09:18:25;20.80;99.90
9998;DHT22;5038;53.064;8.624;2022-08-27T09:21:03;20.80;99.90
9998;DHT22;5038;53.064;8.624;2022-08-27T09:23:40;20.80;99.90
9998;DHT22;5038;53.064;8.624;2022-08-27T09:26:20;20.90;99.90
9998;DHT22;5038;53.064;8.624;2022-08-27T09:28:55;20.90;99.90
9998;DHT22;5038;53.064;8.624;2022-08-27T09:31:43;20.90;99.90
9998;DHT22;5038;53.064;8.624;2022-08-27T09:34:13;21.00;99.90
9998;DHT22;5038;53.064;8.624;2022-08-27T09:36:57;21.00;99.90
9998;DHT22;5038;53.064;8.624;2022-08-27T09:39:38;21.00;99.90
9998;DHT22;5038;53.064;8.624;2022-08-27T09:42:08;21.00;99.90
9998;DHT22;5038;53.064;8.624;2022-08-27T09:44:48;21.00;99.90
9998;DHT22;5038;53.064;8.624;2022-08-27T09:47:21;21.00;99.90
9998;DHT22;5038;53.064;8.624;2022-08-27T09:50:01;21.10;99.90
9998;DHT22;5038;53.064;8.624;2022-08-27T09:52:35;21.10;99.90
9998;DHT22;5038;53.064;8.624;2022-08-27T09:55:05;21.10;99.90
9998;DHT22;5038;53.064;8.624;2022-08-27T09:57:39;21.20;99.90
9998;DHT22;5038;53.064;8.624;2022-08-27T10:00:13;21.20;99.90
9998;DHT22;5038;53.064;8.624;2022-08-27T10:02:51;21.20;99.90
9998;DHT22;5038;53.064;8.624;2022-08-27T10:05:26;21.20;99.90
9998;DHT22;5038;53.064;8.624;2022-08-27T10:07:58;21.20;99.90
9998;DHT22;5038;53.064;8.624;2022-08-27T10:10:38;21.20;99.90
9998;DHT22;5038;53.064;8.624;2022-08-27T10:13:12;21.20;99.90
9998;DHT22;5038;53.064;8.624;2022-08-27T10:15:54;21.20;99.90
9998;DHT22;5038;53.064;8.624;2022-08-27T10:18:32;21.20;99.90
9998;DHT22;5038;53.064;8.624;2022-08-27T10:21:13;21.20;99.90
9998;DHT22;5038;53.064;8.624;2022-08-27T10:23:50;21.30;99.90
9998;DHT22;5038;53.064;8.624;2022-08-27T10:26:23;21.30;99.90
9998;DHT22;5038;53.064;8.624;2022-08-27T10:29:06;21.30;99.90
9998;DHT22;5038;53.064;8.624;2022-08-27T10:31:39;21.40;99.90
9998;DHT22;5038;53.064;8.624;2022-08-27T10:34:24;21.40;99.90
9998;DHT22;5038;53.064;8.624;2022-08-27T10:37:04;21.40;99.90
9998;DHT22;5038;53.064;8.624;2022-08-27T10:39:46;21.40;99.90
9998;DHT22;5038;53.064;8.624;2022-08-27T10:42:23;21.50;99.90
9998;DHT22;5038;53.064;8.624;2022-08-27T10:45:01;21.50;99.90
9998;DHT22;5038;53.064;8.624;2022-08-27T10:50:33;21.60;99.90
9998;DHT22;5038;53.064;8.624;2022-08-27T10:53:08;21.70;99.90
9998;DHT22;5038;53.064;8.624;2022-08-27T10:55:39;21.80;99.90
9998;DHT22;5038;53.064;8.624;2022-08-27T10:58:19;21.80;99.80
9998;DHT22;5038;53.064;8.624;2022-08-27T11:00:55;21.90;99.70
9998;DHT22;5038;53.064;8.624;2022-08-27T11:03:28;22.00;99.70
9998;DHT22;5038;53.064;8.624;2022-08-27T11:06:13;22.00;99.60
9998;DHT22;5038;53.064;8.624;2022-08-27T11:08:45;22.10;99.60
9998;DHT22;5038;53.064;8.624;2022-08-27T11:11:27;22.20;99.50
9998;DHT22;5038;53.064;8.624;2022-08-27T11:14:26;22.20;99.50
9998;DHT22;5038;53.064;8.624;2022-08-27T11:16:58;22.30;99.40
9998;DHT22;5038;53.064;8.624;2022-08-27T11:19:36;22.30;99.20
9998;DHT22;5038;53.064;8.624;2022-08-27T11:22:13;22.30;99.20
9998;DHT22;5038;53.064;8.624;2022-08-27T11:24:55;22.30;99.20
9998;DHT22;5038;53.064;8.624;2022-08-27T11:27:27;22.40;99.00
9998;DHT22;5038;53.064;8.624;2022-08-27T11:30:01;22.30;98.90
9998;DHT22;5038;53.064;8.624;2022-08-27T11:32:38;22.30;98.80
9998;DHT22;5038;53.064;8.624;2022-08-27T11:35:15;22.30;98.70
9998;DHT22;5038;53.064;8.624;2022-08-27T11:37:59;22.40;98.70
9998;DHT22;5038;53.064;8.624;2022-08-27T11:40:44;22.40;98.50
9998;DHT22;5038;53.064;8.624;2022-08-27T11:43:20;22.40;98.20
9998;DHT22;5038;53.064;8.624;2022-08-27T11:45:55;22.30;98.20
9998;DHT22;5038;53.064;8.624;2022-08-27T11:48:25;22.30;98.20
9998;DHT22;5038;53.064;8.624;2022-08-27T11:50:56;22.30;98.10
9998;DHT22;5038;53.064;8.624;2022-08-27T11:53:30;22.30;98.10
9998;DHT22;5038;53.064;8.624;2022-08-27T11:56:10;22.20;98.00
9998;DHT22;5038;53.064;8.624;2022-08-27T11:58:42;22.20;98.00
9998;DHT22;5038;53.064;8.624;2022-08-27T12:01:25;22.20;98.10
9998;DHT22;5038;53.064;8.624;2022-08-27T12:03:59;22.30;98.00
9998;DHT22;5038;53.064;8.624;2022-08-27T12:06:39;22.30;97.90
9998;DHT22;5038;53.064;8.624;2022-08-27T12:09:15;22.30;97.80
9998;DHT22;5038;53.064;8.624;2022-08-27T12:11:54;22.30;97.60
9998;DHT22;5038;53.064;8.624;2022-08-27T12:14:36;22.40;97.60
9998;DHT22;5038;53.064;8.624;2022-08-27T12:17:11;22.40;97.60
9998;DHT22;5038;53.064;8.624;2022-08-27T12:19:52;22.40;97.70
9998;DHT22;5038;53.064;8.624;2022-08-27T12:22:40;22.50;97.60
9998;DHT22;5038;53.064;8.624;2022-08-27T12:25:26;22.60;97.40
9998;DHT22;5038;53.064;8.624;2022-08-27T12:27:57;22.70;97.40
9998;DHT22;5038;53.064;8.624;2022-08-27T12:30:30;22.70;97.30
9998;DHT22;5038;53.064;8.624;2022-08-27T12:33:07;22.80;97.20
9998;DHT22;5038;53.064;8.624;2022-08-27T12:35:42;22.80;97.10
9998;DHT22;5038;53.064;8.624;2022-08-27T12:38:16;22.80;97.00
9998;DHT22;5038;53.064;8.624;2022-08-27T12:40:50;22.90;97.00
9998;DHT22;5038;53.064;8.624;2022-08-27T12:43:20;22.90;96.90
9998;DHT22;5038;53.064;8.624;2022-08-27T12:45:52;22.90;96.80
9998;DHT22;5038;53.064;8.624;2022-08-27T12:48:28;22.90;96.60
9998;DHT22;5038;53.064;8.624;2022-08-27T12:51:00;22.90;96.50
9998;DHT22;5038;53.064;8.624;2022-08-27T12:53:39;22.90;96.50
9998;DHT22;5038;53.064;8.624;2022-08-27T12:56:34;22.80;96.50
9998;DHT22;5038;53.064;8.624;2022-08-27T12:59:13;22.80;96.40
9998;DHT22;5038;53.064;8.624;2022-08-27T13:01:53;22.80;96.40
9998;DHT22;5038;53.064;8.624;2022-08-27T13:04:23;22.80;96.40
9998;DHT22;5038;53.064;8.624;2022-08-27T13:06:52;22.80;96.30
9998;DHT22;5038;53.064;8.624;2022-08-27T13:09:26;22.90;96.30
9998;DHT22;5038;53.064;8.624;2022-08-27T13:11:57;22.90;96.00
9998;DHT22;5038;53.064;8.624;2022-08-27T13:14:33;23.00;96.00
9998;DHT22;5038;53.064;8.624;2022-08-27T13:17:05;23.00;96.00
9998;DHT22;5038;53.064;8.624;2022-08-27T13:19:35;23.10;95.90
9998;DHT22;5038;53.064;8.624;2022-08-27T13:22:04;23.20;95.80
9998;DHT22;5038;53.064;8.624;2022-08-27T13:24:35;23.30;95.60
9998;DHT22;5038;53.064;8.624;2022-08-27T13:27:05;23.30;95.50
9998;DHT22;5038;53.064;8.624;2022-08-27T13:29:33;23.40;95.40
9998;DHT22;5038;53.064;8.624;2022-08-27T13:32:02;23.30;95.30
9998;DHT22;5038;53.064;8.624;2022-08-27T13:34:38;23.30;95.20
9998;DHT22;5038;53.064;8.624;2022-08-27T13:37:20;23.30;95.10
9998;DHT22;5038;53.064;8.624;2022-08-27T13:39:52;23.30;94.90
9998;DHT22;5038;53.064;8.624;2022-08-27T13:42:22;23.30;94.90
9998;DHT22;5038;53.064;8.624;2022-08-27T13:44:53;23.40;95.00
9998;DHT22;5038;53.064;8.624;2022-08-27T13:47:25;23.40;94.90
9998;DHT22;5038;53.064;8.624;2022-08-27T13:50:03;23.50;94.70
9998;DHT22;5038;53.064;8.624;2022-08-27T13:52:35;23.50;94.60
9998;DHT22;5038;53.064;8.624;2022-08-27T13:55:25;23.50;94.50
9998;DHT22;5038;53.064;8.624;2022-08-27T13:57:55;23.40;94.40
9998;DHT22;5038;53.064;8.624;2022-08-27T14:00:26;23.30;94.20
9998;DHT22;5038;53.064;8.624;2022-08-27T14:02:55;23.30;94.20
9998;DHT22;5038;53.064;8.624;2022-08-27T14:05:29;23.20;94.20
9998;DHT22;5038;53.064;8.624;2022-08-27T14:08:09;23.20;94.30
9998;DHT22;5038;53.064;8.624;2022-08-27T14:10:40;23.20;94.20
9998;DHT22;5038;53.064;8.624;2022-08-27T14:13:20;23.30;94.20
9998;DHT22;5038;53.064;8.624;2022-08-27T14:15:50;23.50;94.10
9998;DHT22;5038;53.064;8.624;2022-08-27T14:18:24;23.50;94.00
9998;DHT22;5038;53.064;8.624;2022-08-27T14:21:14;23.60;93.90
9998;DHT22;5038;53.064;8.624;2022-08-27T14:23:47;23.70;93.80
9998;DHT22;5038;53.064;8.624;2022-08-27T14:26:16;23.80;93.70
9998;DHT22;5038;53.064;8.624;2022-08-27T14:28:46;23.80;93.50
9998;DHT22;5038;53.064;8.624;2022-08-27T14:31:15;23.80;93.30
9998;DHT22;5038;53.064;8.624;2022-08-27T14:33:43;23.80;93.20
9998;DHT22;5038;53.064;8.624;2022-08-27T14:36:12;23.80;93.50
9998;DHT22;5038;53.064;8.624;2022-08-27T14:38:44;23.80;93.10
9998;DHT22;5038;53.064;8.624;2022-08-27T14:41:13;23.80;93.00
9998;DHT22;5038;53.064;8.624;2022-08-27T14:43:46;23.80;92.90
9998;DHT22;5038;53.064;8.624;2022-08-27T14:46:21;23.80;92.80
9998;DHT22;5038;53.064;8.624;2022-08-27T14:48:51;23.80;92.70
9998;DHT22;5038;53.064;8.624;2022-08-27T14:51:23;23.70;92.60
9998;DHT22;5038;53.064;8.624;2022-08-27T14:53:53;23.70;92.60
9998;DHT22;5038;53.064;8.624;2022-08-27T14:56:22;23.60;92.50
9998;DHT22;5038;53.064;8.624;2022-08-27T14:58:52;23.60;92.60
9998;DHT22;5038;53.064;8.624;2022-08-27T15:01:24;23.60;92.50
9998;DHT22;5038;53.064;8.624;2022-08-27T15:03:54;23.60;92.40
9998;DHT22;5038;53.064;8.624;2022-08-27T15:06:22;23.60;92.30
9998;DHT22;5038;53.064;8.624;2022-08-27T15:08:56;23.50;92.10
9998;DHT22;5038;53.064;8.624;2022-08-27T15:11:28;23.50;92.10
9998;DHT22;5038;53.064;8.624;2022-08-27T15:14:00;23.50;92.00
9998;DHT22;5038;53.064;8.624;2022-08-27T15:16:31;23.40;91.90
9998;DHT22;5038;53.064;8.624;2022-08-27T15:19:01;23.40;91.90
9998;DHT22;5038;53.064;8.624;2022-08-27T15:21:30;23.40;91.90
9998;DHT22;5038;53.064;8.624;2022-08-27T15:24:01;23.40;92.10
9998;DHT22;5038;53.064;8.624;2022-08-27T15:26:31;23.40;91.80
9998;DHT22;5038;53.064;8.624;2022-08-27T15:29:02;23.30;91.80
9998;DHT22;5038;53.064;8.624;2022-08-27T15:31:32;23.30;91.80
9998;DHT22;5038;53.064;8.624;2022-08-27T15:34:01;23.30;91.80
9998;DHT22;5038;53.064;8.624;2022-08-27T15:36:29;23.30;91.80
9998;DHT22;5038;53.064;8.624;2022-08-27T15:38:57;23.30;91.80
9998;DHT22;5038;53.064;8.624;2022-08-27T15:41:26;23.30;91.80
9998;DHT22;5038;53.064;8.624;2022-08-27T15:43:56;23.30;92.00
9998;DHT22;5038;53.064;8.624;2022-08-27T15:46:26;23.30;92.10
9998;DHT22;5038;53.064;8.624;2022-08-27T15:48:54;23.30;92.20
9998;DHT22;5038;53.064;8.624;2022-08-27T15:51:27;23.30;92.10
9998;DHT22;5038;53.064;8.624;2022-08-27T15:53:56;23.20;92.10
9998;DHT22;5038;53.064;8.624;2022-08-27T15:56:25;23.20;92.20
9998;DHT22;5038;53.064;8.624;2022-08-27T15:59:00;23.20;92.10
9998;DHT22;5038;53.064;8.624;2022-08-27T16:01:31;23.10;92.10
9998;DHT22;5038;53.064;8.624;2022-08-27T16:04:00;23.00;92.10
9998;DHT22;5038;53.064;8.624;2022-08-27T16:06:30;23.00;92.10
9998;DHT22;5038;53.064;8.624;2022-08-27T16:09:01;23.00;92.10
9998;DHT22;5038;53.064;8.624;2022-08-27T16:11:29;22.90;92.00
9998;DHT22;5038;53.064;8.624;2022-08-27T16:13:58;22.90;91.90
9998;DHT22;5038;53.064;8.624;2022-08-27T16:16:29;22.80;91.90
9998;DHT22;5038;53.064;8.624;2022-08-27T16:18:59;22.80;91.90
9998;DHT22;5038;53.064;8.624;2022-08-27T16:21:28;22.70;91.80
9998;DHT22;5038;53.064;8.624;2022-08-27T16:24:02;22.70;91.90
9998;DHT22;5038;53.064;8.624;2022-08-27T16:26:30;22.70;92.00
9998;DHT22;5038;53.064;8.624;2022-08-27T16:28:58;22.70;91.90
9998;DHT22;5038;53.064;8.624;2022-08-27T16:31:27;22.70;91.80
9998;DHT22;5038;53.064;8.624;2022-08-27T16:34:00;22.70;91.80
9998;DHT22;5038;53.064;8.624;2022-08-27T16:36:28;22.70;91.80